Time;durP1;ratioP1;P1;durP2;ratioP2;P2;SDS_P1;SDS_P2;PMS_P1;PMS_P2;Temp;Humidity;BMP_temperature;BMP_pressure;BME280_temperature;BME280_humidity;BME280_pressure;Samples;Min_cycle;Max_cycle;Signal;HPM_P1;HPM_P2
2021/04/15 00:00:10;;;;;;;6.95;2.38;;;3.40;99.90;;;;;;5103635;28;20050;-82
2021/04/15 00:02:38;;;;;;;5.70;2.33;;;3.30;99.90;;;;;;5091744;28;20040;-82
2021/04/15 00:05:04;;;;;;;3.60;2.10;;;3.20;99.90;;;;;;5098631;28;20032;-82
2021/04/15 00:07:31;;;;;;;4.55;2.38;;;3.10;99.90;;;;;;5105041;28;20051;-81
2021/04/15 00:09:56;;;;;;;3.30;2.00;;;3.00;99.90;;;;;;5086342;28;20419;-82
2021/04/15 00:12:22;;;;;;;7.10;2.30;;;2.90;99.90;;;;;;5102122;28;20044;-81
2021/04/15 00:14:48;;;;;;;4.85;2.08;;;2.80;99.90;;;;;;5060260;28;20090;-81
2021/04/15 00:17:14;;;;;;;3.35;2.03;;;2.70;99.90;;;;;;5064011;28;20365;-82
2021/04/15 00:19:39;;;;;;;3.88;2.03;;;2.60;99.90;;;;;;5101154;28;20119;-81
2021/04/15 00:22:05;;;;;;;5.68;2.50;;;2.50;99.90;;;;;;5073654;28;20040;-81
2021/04/15 00:24:31;;;;;;;4.82;2.40;;;2.40;99.90;;;;;;5092498;28;20035;-82
2021/04/15 00:26:57;;;;;;;;;;;2.20;99.90;;;;;;5085377;28;20218;-82
2021/04/15 00:29:23;;;;;;;5.03;2.88;;;2.10;99.90;;;;;;5079527;28;20022;-81
2021/04/15 00:31:48;;;;;;;4.90;2.33;;;2.00;99.90;;;;;;5095178;28;20050;-82
2021/04/15 00:34:14;;;;;;;7.45;3.10;;;1.80;99.90;;;;;;5090163;28;20081;-82
2021/04/15 00:36:44;;;;;;;6.95;3.10;;;1.80;99.90;;;;;;5105666;28;20490;-81
2021/04/15 00:39:10;;;;;;;10.43;3.63;;;1.70;99.90;;;;;;5090844;28;20058;-81
2021/04/15 00:41:36;;;;;;;7.63;3.10;;;1.60;99.90;;;;;;5107025;28;20036;-82
2021/04/15 00:44:01;;;;;;;7.78;3.75;;;1.60;99.90;;;;;;5077082;28;20028;-81
2021/04/15 00:46:27;;;;;;;5.50;3.08;;;1.50;99.90;;;;;;5062550;28;20054;-82
2021/04/15 00:48:54;;;;;;;18.73;8.13;;;2.10;99.90;;;;;;5073987;28;20036;-82
2021/04/15 00:52:00;;;;;;;14.50;6.82;;;1.40;99.90;;;;;;5109932;28;20046;-83
2021/04/15 00:54:54;;;;;;;11.20;4.15;;;1.50;99.90;;;;;;5009493;28;20073;-83
2021/04/15 00:57:48;;;;;;;11.55;4.18;;;1.50;99.90;;;;;;5028170;28;20103;-83
2021/04/15 01:00:17;;;;;;;8.93;4.03;;;1.50;99.90;;;;;;5083541;28;20052;-83
2021/04/15 01:02:43;;;;;;;5.88;3.22;;;1.40;99.90;;;;;;5070993;28;20434;-82
2021/04/15 01:05:27;;;;;;;7.30;3.15;;;1.40;99.90;;;;;;5095135;28;20063;-82
2021/04/15 01:07:53;;;;;;;6.60;3.80;;;1.30;99.90;;;;;;5087210;28;20044;-82
2021/04/15 01:10:22;;;;;;;8.35;4.05;;;1.20;99.90;;;;;;5086010;28;20115;-83
2021/04/15 01:13:03;;;;;;;9.77;4.13;;;1.20;99.90;;;;;;5068538;28;20428;-82
2021/04/15 01:15:54;;;;;;;7.22;4.13;;;1.10;99.90;;;;;;5072731;28;20735;-83
2021/04/15 01:18:31;;;;;;;9.40;3.83;;;1.00;99.90;;;;;;5072417;28;20036;-82
2021/04/15 01:21:38;;;;;;;5.90;3.90;;;1.00;99.90;;;;;;5074568;28;20036;-83
2021/04/15 01:24:24;;;;;;;7.70;3.40;;;0.90;99.90;;;;;;5089528;28;20059;-82
2021/04/15 01:27:17;;;;;;;6.65;3.25;;;1.00;99.90;;;;;;5086035;28;20350;-82
2021/04/15 01:30:08;;;;;;;5.00;3.13;;;0.80;99.90;;;;;;5084550;28;20040;-82
2021/04/15 01:32:38;;;;;;;4.90;3.35;;;0.60;99.90;;;;;;5092694;28;20040;-82
2021/04/15 01:35:17;;;;;;;7.15;3.20;;;0.60;99.90;;;;;;5092553;28;20055;-83
2021/04/15 01:38:06;;;;;;;5.30;2.92;;;0.50;99.90;;;;;;5094170;28;20380;-84
2021/04/15 01:40:37;;;;;;;5.88;3.33;;;0.40;99.90;;;;;;5080050;28;20093;-83
2021/04/15 01:43:22;;;;;;;6.50;3.20;;;0.40;99.90;;;;;;5092385;28;20085;-83
2021/04/15 01:45:52;;;;;;;6.85;2.97;;;0.40;99.90;;;;;;5084625;28;20044;-83
2021/04/15 01:48:29;;;;;;;6.05;4.00;;;0.30;99.90;;;;;;5083311;28;20124;-83
2021/04/15 01:50:58;;;;;;;7.18;4.00;;;0.30;99.90;;;;;;5091402;28;20043;-83
2021/04/15 01:53:31;;;;;;;9.50;4.45;;;0.30;99.90;;;;;;5087135;28;20064;-83
2021/04/15 01:56:23;;;;;;;7.32;4.35;;;0.20;99.90;;;;;;5086736;28;20048;-82
2021/04/15 01:58:58;;;;;;;6.18;3.42;;;0.30;99.90;;;;;;5072365;28;20101;-82
2021/04/15 02:01:25;;;;;;;6.10;3.53;;;0.30;99.90;;;;;;5090586;28;20039;-82
2021/04/15 02:03:57;;;;;;;5.15;3.35;;;0.40;99.90;;;;;;5073339;28;20036;-82
2021/04/15 02:06:26;;;;;;;5.55;3.40;;;0.40;99.90;;;;;;5095798;28;20419;-82
2021/04/15 02:08:58;;;;;;;7.18;3.88;;;0.40;99.90;;;;;;5093545;28;20116;-82
2021/04/15 02:11:51;;;;;;;6.85;3.42;;;0.30;99.90;;;;;;5076566;28;20044;-83
2021/04/15 02:14:23;;;;;;;6.35;3.85;;;0.30;99.90;;;;;;5098654;28;20048;-82
2021/04/15 02:16:53;;;;;;;4.43;2.90;;;0.30;99.90;;;;;;5067496;28;20123;-82
2021/04/15 02:19:31;;;;;;;7.30;3.47;;;0.20;99.90;;;;;;5095964;28;20044;-82
2021/04/15 02:22:28;;;;;;;6.70;4.05;;;0.20;99.90;;;;;;5096551;28;20044;-82
2021/04/15 02:25:09;;;;;;;6.43;3.63;;;0.20;99.90;;;;;;5101356;28;20051;-83
2021/04/15 02:27:44;;;;;;;6.72;3.80;;;0.30;99.90;;;;;;5098408;28;20035;-83
2021/04/15 02:30:27;;;;;;;7.70;3.90;;;0.30;99.90;;;;;;5089707;28;20040;-82
2021/04/15 02:33:15;;;;;;;7.53;4.00;;;0.40;99.90;;;;;;5092378;28;20054;-82
2021/04/15 02:35:44;;;;;;;7.03;3.95;;;0.40;99.90;;;;;;5069909;28;20361;-82
2021/04/15 02:38:12;;;;;;;6.03;3.75;;;0.40;99.90;;;;;;5074120;28;20044;-82
2021/04/15 02:41:03;;;;;;;8.35;3.50;;;0.50;99.90;;;;;;5059372;28;20036;-83
2021/04/15 02:43:48;;;;;;;7.35;3.33;;;0.50;99.90;;;;;;5067605;28;20051;-83
2021/04/15 02:46:28;;;;;;;5.65;3.53;;;0.50;99.90;;;;;;5088682;28;20036;-83
2021/04/15 02:49:00;;;;;;;7.03;3.85;;;0.60;99.90;;;;;;5092972;28;20126;-83
2021/04/15 02:51:41;;;;;;;7.03;3.35;;;0.60;99.90;;;;;;5076153;28;20044;-82
2021/04/15 02:54:17;;;;;;;4.78;3.10;;;0.70;99.90;;;;;;5074577;28;20040;-81
2021/04/15 02:56:46;;;;;;;4.78;3.20;;;0.70;99.90;;;;;;5107343;28;20044;-81
2021/04/15 02:59:18;;;;;;;4.45;3.17;;;0.70;99.90;;;;;;5069696;28;20078;-83
2021/04/15 03:01:49;;;;;;;7.05;3.25;;;0.80;99.90;;;;;;5094875;28;20496;-83
2021/04/15 03:04:20;;;;;;;5.75;3.05;;;0.80;99.90;;;;;;5092571;28;20392;-83
2021/04/15 03:06:48;;;;;;;6.97;3.95;;;0.90;99.90;;;;;;5099236;28;20089;-82
2021/04/15 03:09:16;;;;;;;5.45;3.08;;;0.90;99.90;;;;;;5092298;28;20059;-82
2021/04/15 03:11:55;;;;;;;4.65;3.00;;;0.90;99.90;;;;;;5092625;28;20036;-82
2021/04/15 03:14:28;;;;;;;5.10;2.95;;;0.90;99.90;;;;;;5092534;28;20545;-82
2021/04/15 03:17:03;;;;;;;5.15;3.03;;;0.90;99.90;;;;;;5092523;28;20130;-82
2021/04/15 03:19:42;;;;;;;4.78;2.60;;;0.90;99.90;;;;;;5079656;28;20464;-83
2021/04/15 03:22:21;;;;;;;5.55;3.42;;;0.90;99.90;;;;;;5097368;28;20040;-83
2021/04/15 03:24:52;;;;;;;7.00;3.30;;;0.90;99.90;;;;;;5085530;28;20103;-82
2021/04/15 03:27:39;;;;;;;4.55;3.30;;;0.80;99.90;;;;;;5076918;28;20073;-82
2021/04/15 03:30:10;;;;;;;5.47;3.20;;;0.80;99.90;;;;;;5092108;28;20165;-82
2021/04/15 03:33:06;;;;;;;6.18;3.30;;;0.80;99.90;;;;;;5098402;28;20081;-82
2021/04/15 03:35:40;;;;;;;5.68;3.30;;;0.80;99.90;;;;;;5088643;28;20453;-83
2021/04/15 03:38:08;;;;;;;4.73;2.97;;;0.80;99.90;;;;;;5082958;28;20040;-82
2021/04/15 03:40:38;;;;;;;7.32;3.67;;;0.80;99.90;;;;;;5092513;28;20289;-81
2021/04/15 03:43:24;;;;;;;4.35;3.08;;;0.80;99.90;;;;;;5075863;28;20126;-82
2021/04/15 03:46:08;;;;;;;8.60;3.42;;;0.70;99.90;;;;;;5100016;28;20051;-82
2021/04/15 03:48:51;;;;;;;6.43;4.15;;;0.70;99.90;;;;;;5083391;28;20161;-82
2021/04/15 03:51:35;;;;;;;5.75;3.55;;;0.60;99.90;;;;;;5083088;28;20040;-82
2021/04/15 03:54:04;;;;;;;11.75;4.53;;;0.50;99.90;;;;;;5099217;28;20056;-82
2021/04/15 03:56:55;;;;;;;7.50;4.32;;;0.50;99.90;;;;;;5105351;28;20039;-82
2021/04/15 03:59:30;;;;;;;4.72;3.40;;;0.50;99.90;;;;;;5107350;28;20039;-82
2021/04/15 04:02:01;;;;;;;6.00;3.47;;;0.40;99.90;;;;;;5101331;28;20050;-81
2021/04/15 04:04:39;;;;;;;10.10;3.95;;;0.40;99.90;;;;;;5090386;28;20115;-83
2021/04/15 04:07:39;;;;;;;7.65;4.10;;;0.30;99.90;;;;;;5120212;28;20082;-82
2021/04/15 04:10:07;;;;;;;8.48;5.07;;;0.30;99.90;;;;;;5067706;28;20056;-82
2021/04/15 04:12:41;;;;;;;6.20;4.65;;;0.30;99.90;;;;;;5085849;28;20457;-82
2021/04/15 04:15:13;;;;;;;8.43;5.30;;;0.30;99.90;;;;;;5091520;28;20040;-83
2021/04/15 04:18:01;;;;;;;7.60;4.68;;;0.30;99.90;;;;;;5091913;28;20032;-83
2021/04/15 04:20:33;;;;;;;6.70;4.40;;;0.30;99.90;;;;;;5093619;28;20031;-83
2021/04/15 04:23:10;;;;;;;10.73;5.32;;;0.20;99.90;;;;;;5101161;28;20135;-83
2021/04/15 04:26:05;;;;;;;10.02;4.95;;;0.20;99.90;;;;;;5060902;28;20107;-83
2021/04/15 04:28:42;;;;;;;8.63;6.20;;;0.10;99.90;;;;;;5075641;28;20082;-83
2021/04/15 04:31:18;;;;;;;7.90;4.65;;;0.10;99.90;;;;;;5090722;28;20118;-83
2021/04/15 04:33:47;;;;;;;7.60;4.93;;;0.10;99.90;;;;;;5073247;28;20453;-83
2021/04/15 04:36:15;;;;;;;11.55;5.50;;;0.10;99.90;;;;;;5069618;28;20118;-83
2021/04/15 04:38:42;;;;;;;7.82;5.10;;;0.10;99.90;;;;;;5090736;28;20032;-83
2021/04/15 04:41:30;;;;;;;10.90;5.32;;;0.20;99.90;;;;;;5092236;28;20067;-83
2021/04/15 04:44:10;;;;;;;10.55;5.15;;;0.20;99.90;;;;;;5029344;28;20112;-82
2021/04/15 04:46:50;;;;;;;7.75;5.10;;;0.20;99.90;;;;;;5074173;28;20063;-83
2021/04/15 04:49:28;;;;;;;9.05;4.93;;;0.40;99.90;;;;;;5090949;28;20040;-83
2021/04/15 04:51:59;;;;;;;10.65;5.18;;;0.20;99.90;;;;;;5090515;28;20591;-83
2021/04/15 04:54:25;;;;;;;9.02;5.20;;;0.20;99.90;;;;;;5085248;28;20046;-83
2021/04/15 04:57:05;;;;;;;7.43;5.15;;;0.20;99.90;;;;;;5079640;28;20052;-83
2021/04/15 04:59:35;;;;;;;8.48;4.93;;;0.20;99.90;;;;;;5079866;28;20059;-81
2021/04/15 05:02:02;;;;;;;9.43;4.90;;;0.20;99.90;;;;;;5105647;28;21213;-80
2021/04/15 05:04:35;;;;;;;12.43;5.50;;;0.10;99.90;;;;;;5086751;28;20036;-82
2021/04/15 05:07:04;;;;;;;11.52;5.38;;;0.10;99.90;;;;;;5019985;28;20072;-82
2021/04/15 05:09:39;;;;;;;12.05;6.05;;;0.40;99.90;;;;;;5084702;28;20573;-83
2021/04/15 05:12:07;;;;;;;12.85;5.85;;;0.30;99.90;;;;;;5071743;28;20052;-83
2021/04/15 05:14:34;;;;;;;13.18;6.78;;;0.30;99.90;;;;;;5055688;28;20047;-84
2021/04/15 05:17:18;;;;;;;8.23;6.30;;;0.40;99.90;;;;;;5055349;28;20439;-83
2021/04/15 05:19:44;;;;;;;10.57;6.50;;;0.40;99.90;;;;;;5091947;28;20040;-84
2021/04/15 05:22:21;;;;;;;15.63;7.43;;;0.40;99.90;;;;;;5055891;28;20043;-84
2021/04/15 05:24:48;;;;;;;;;;;1.00;99.90;;;;;;5089853;28;20046;-84
2021/04/15 05:27:18;;;;;;;13.27;6.78;;;0.40;99.90;;;;;;5090961;28;19968;-84
2021/04/15 05:29:45;;;;;;;15.27;7.30;;;0.50;99.90;;;;;;5090854;28;20032;-84
2021/04/15 05:32:13;;;;;;;11.45;6.07;;;0.60;99.90;;;;;;5100647;28;20071;-84
2021/04/15 05:34:41;;;;;;;11.88;7.75;;;0.60;99.90;;;;;;5061422;28;20031;-83
2021/04/15 05:37:15;;;;;;;11.50;6.30;;;0.70;99.90;;;;;;5090180;28;20082;-83
2021/04/15 05:39:42;;;;;;;35.92;6.97;;;1.10;99.90;;;;;;5091107;28;20032;-83
2021/04/15 05:42:10;;;;;;;10.50;6.25;;;1.40;99.90;;;;;;5066141;28;20130;-83
2021/04/15 05:45:09;;;;;;;11.38;6.13;;;1.00;99.90;;;;;;5081785;28;20420;-84
2021/04/15 05:47:50;;;;;;;11.05;6.30;;;1.00;99.90;;;;;;5072551;28;20122;-84
2021/04/15 05:50:36;;;;;;;14.43;5.78;;;1.10;99.90;;;;;;5055762;28;20048;-85
2021/04/15 05:53:11;;;;;;;12.90;6.17;;;1.20;99.90;;;;;;5068807;28;20057;-83
2021/04/15 05:55:42;;;;;;;11.32;6.32;;;1.30;99.90;;;;;;5093262;28;20118;-83
2021/04/15 05:58:30;;;;;;;11.85;6.03;;;1.30;99.90;;;;;;5072399;28;20044;-84
2021/04/15 06:01:14;;;;;;;13.10;6.25;;;1.40;99.90;;;;;;5064826;28;20502;-84
2021/04/15 06:04:11;;;;;;;9.77;5.55;;;1.50;99.90;;;;;;5077073;28;20043;-84
2021/04/15 06:06:39;;;;;;;10.33;6.23;;;1.60;99.90;;;;;;5095839;28;20052;-83
2021/04/15 06:09:07;;;;;;;13.05;5.95;;;1.80;99.90;;;;;;5086234;28;20363;-84
2021/04/15 06:11:48;;;;;;;12.60;6.35;;;1.90;99.90;;;;;;5055589;28;20054;-84
2021/04/15 06:14:38;;;;;;;10.05;5.53;;;2.00;99.90;;;;;;5070873;28;20124;-83
2021/04/15 06:17:31;;;;;;;12.77;5.70;;;2.10;99.90;;;;;;5078298;28;20430;-83
2021/04/15 06:20:20;;;;;;;11.27;5.60;;;2.20;99.90;;;;;;5071315;28;20044;-84
2021/04/15 06:22:53;;;;;;;12.52;5.60;;;2.70;99.90;;;;;;5092321;28;20058;-82
2021/04/15 06:25:21;;;;;;;14.52;6.05;;;2.50;99.90;;;;;;5091276;28;20043;-84
2021/04/15 06:27:48;;;;;;;11.88;5.10;;;2.60;99.90;;;;;;5069501;28;20031;-82
2021/04/15 06:30:46;;;;;;;11.07;4.63;;;2.90;99.90;;;;;;5070166;28;20040;-83
2021/04/15 06:33:18;;;;;;;10.15;4.65;;;2.90;99.90;;;;;;5060913;28;20040;-84
2021/04/15 06:35:47;;;;;;;10.40;4.82;;;3.10;99.90;;;;;;5085431;28;20137;-84
2021/04/15 06:38:30;;;;;;;10.65;4.97;;;3.40;99.90;;;;;;5054063;28;20413;-83
2021/04/15 06:41:04;;;;;;;7.72;4.63;;;3.40;99.90;;;;;;5082641;28;20036;-83
2021/04/15 06:43:54;;;;;;;9.95;4.82;;;3.50;99.90;;;;;;5079558;28;20142;-81
2021/04/15 06:46:42;;;;;;;7.85;4.03;;;3.60;99.90;;;;;;5077568;28;20046;-81
2021/04/15 06:49:37;;;;;;;9.68;4.63;;;3.70;99.90;;;;;;5093697;28;20048;-83
2021/04/15 06:52:34;;;;;;;13.32;4.88;;;3.80;99.90;;;;;;5041796;28;20048;-82
2021/04/15 06:55:19;;;;;;;11.23;5.00;;;3.90;99.90;;;;;;5086075;28;20115;-82
2021/04/15 06:58:14;;;;;;;6.97;4.20;;;4.10;99.90;;;;;;5094209;28;20089;-82
2021/04/15 07:00:58;;;;;;;10.73;4.38;;;4.20;99.90;;;;;;5050507;28;20055;-82
2021/04/15 07:03:54;;;;;;;7.05;3.78;;;4.40;99.90;;;;;;5091250;28;20139;-80
2021/04/15 07:06:20;;;;;;;9.93;4.32;;;4.50;99.90;;;;;;5066859;28;20480;-80
2021/04/15 07:09:11;;;;;;;7.07;3.55;;;4.70;99.90;;;;;;5095561;28;20051;-81
2021/04/15 07:12:02;;;;;;;9.18;3.45;;;4.90;99.90;;;;;;5093013;28;20105;-82
2021/04/15 07:15:02;;;;;;;7.70;3.67;;;5.00;99.90;;;;;;5071042;28;20036;-82
2021/04/15 07:17:37;;;;;;;9.18;3.95;;;5.20;99.90;;;;;;5058465;28;20086;-83
2021/04/15 07:20:09;;;;;;;7.80;3.42;;;6.30;99.90;;;;;;5092785;28;20032;-82
2021/04/15 07:22:45;;;;;;;8.90;3.58;;;5.40;99.90;;;;;;5099662;28;20040;-83
2021/04/15 07:25:40;;;;;;;8.48;3.70;;;5.50;99.90;;;;;;5088960;28;20036;-82
2021/04/15 07:28:28;;;;;;;9.30;3.65;;;5.60;99.90;;;;;;5086108;28;20043;-81
2021/04/15 07:30:54;;;;;;;7.65;3.22;;;5.70;99.90;;;;;;5074437;28;20039;-82
2021/04/15 07:33:34;;;;;;;9.40;3.15;;;5.90;99.90;;;;;;5086462;28;20792;-83
2021/04/15 07:36:39;;;;;;;10.82;3.53;;;6.00;99.90;;;;;;5063964;28;20040;-82
2021/04/15 07:39:21;;;;;;;6.90;3.42;;;6.10;99.90;;;;;;5089563;28;20046;-81
2021/04/15 07:42:00;;;;;;;12.45;5.15;;;6.20;99.90;;;;;;5076764;28;20039;-81
2021/04/15 07:44:58;;;;;;;8.20;4.03;;;6.30;99.90;;;;;;5091559;28;20105;-82
2021/04/15 07:47:36;;;;;;;8.82;3.40;;;6.40;99.90;;;;;;5077393;28;20340;-81
2021/04/15 07:50:19;;;;;;;7.72;3.03;;;6.60;99.90;;;;;;5095549;28;20120;-80
2021/04/15 07:53:08;;;;;;;5.47;3.10;;;6.70;99.90;;;;;;5087516;28;20107;-84
2021/04/15 07:55:34;;;;;;;5.90;4.00;;;6.70;99.90;;;;;;5067450;28;20039;-83
2021/04/15 07:58:41;;;;;;;8.35;4.32;;;6.80;99.90;;;;;;5100278;28;20392;-81
2021/04/15 08:01:42;;;;;;;7.13;3.63;;;6.90;99.90;;;;;;5091313;28;20111;-82
2021/04/15 08:04:31;;;;;;;7.22;3.60;;;6.90;99.90;;;;;;5065352;28;20201;-82
2021/04/15 08:07:15;;;;;;;9.70;4.18;;;6.90;99.90;;;;;;5085534;28;20036;-84
2021/04/15 08:09:57;;;;;;;9.52;3.88;;;7.00;99.90;;;;;;5092541;28;20123;-82
2021/04/15 08:12:59;;;;;;;12.32;3.75;;;7.20;99.90;;;;;;5106812;28;20486;-82
2021/04/15 08:16:00;;;;;;;5.25;4.07;;;7.30;99.90;;;;;;5091672;28;20064;-83
2021/04/15 08:18:46;;;;;;;6.60;4.05;;;7.60;99.90;;;;;;5089281;28;20032;-84
2021/04/15 08:21:49;;;;;;;6.97;3.75;;;7.80;99.90;;;;;;5080109;28;20036;-83
2021/04/15 08:24:47;;;;;;;9.43;4.63;;;7.80;99.90;;;;;;5074110;28;20036;-83
2021/04/15 08:27:39;;;;;;;6.20;4.22;;;7.70;99.90;;;;;;5096093;28;20048;-83
2021/04/15 08:30:23;;;;;;;6.82;3.17;;;7.80;99.90;;;;;;5089876;28;20051;-83
2021/04/15 08:33:12;;;;;;;6.13;3.53;;;7.80;99.90;;;;;;5097264;28;20094;-83
2021/04/15 08:36:09;;;;;;;6.40;3.47;;;7.80;99.90;;;;;;5073310;28;20497;-83
2021/04/15 08:39:11;;;;;;;6.57;4.05;;;7.80;99.90;;;;;;5083862;28;20032;-83
2021/04/15 08:42:08;;;;;;;5.70;3.33;;;7.80;99.90;;;;;;5079265;28;20094;-83
2021/04/15 08:44:54;;;;;;;5.90;4.30;;;7.90;99.90;;;;;;5090011;28;20433;-82
2021/04/15 08:47:47;;;;;;;6.85;3.55;;;8.10;99.90;;;;;;5092108;28;20059;-82
2021/04/15 08:50:50;;;;;;;6.68;3.42;;;8.10;99.90;;;;;;5075069;28;20040;-82
2021/04/15 08:53:31;;;;;;;5.13;2.90;;;8.10;99.90;;;;;;5066195;28;20044;-83
2021/04/15 08:56:06;;;;;;;8.48;2.88;;;8.10;99.90;;;;;;5093106;28;20044;-80
2021/04/15 08:58:50;;;;;;;6.13;2.47;;;8.10;99.90;;;;;;5072268;28;20114;-84
2021/04/15 09:01:32;;;;;;;6.82;2.53;;;8.20;99.90;;;;;;5087027;28;20031;-79
2021/04/15 09:04:05;;;;;;;3.33;2.00;;;8.40;99.90;;;;;;5096778;28;20092;-82
2021/04/15 09:06:58;;;;;;;4.40;2.55;;;8.50;99.90;;;;;;5072938;28;20452;-82
2021/04/15 09:09:49;;;;;;;5.50;2.20;;;8.60;99.80;;;;;;5066451;28;20062;-81
2021/04/15 09:12:34;;;;;;;3.13;1.88;;;8.60;95.80;;;;;;5100499;28;20127;-80
2021/04/15 09:15:05;;;;;;;5.68;2.50;;;8.70;99.20;;;;;;5072219;28;20127;-82
2021/04/15 09:18:12;;;;;;;4.68;2.25;;;8.80;98.70;;;;;;5073551;28;20119;-80
2021/04/15 09:21:01;;;;;;;4.55;2.22;;;8.80;97.40;;;;;;5077132;28;20048;-83
2021/04/15 09:23:42;;;;;;;3.97;2.10;;;8.90;97.10;;;;;;5043078;28;20045;-82
2021/04/15 09:26:26;;;;;;;5.05;2.60;;;9.10;97.00;;;;;;5093586;28;20040;-82
2021/04/15 09:29:13;;;;;;;5.00;2.00;;;9.20;95.20;;;;;;5090721;28;20039;-83
2021/04/15 09:31:54;;;;;;;4.82;1.90;;;9.30;93.00;;;;;;5082687;28;20040;-82
2021/04/15 09:34:32;;;;;;;3.83;1.95;;;9.40;93.40;;;;;;5063644;28;20135;-84
2021/04/15 09:37:45;;;;;;;2.72;1.70;;;9.50;92.00;;;;;;5082438;28;20034;-82
2021/04/15 09:40:19;;;;;;;5.43;1.90;;;9.60;87.20;;;;;;5062288;28;20491;-82
2021/04/15 09:43:00;;;;;;;3.05;1.60;;;9.80;90.40;;;;;;5066141;28;20546;-80
2021/04/15 09:45:38;;;;;;;3.70;1.90;;;10.00;87.30;;;;;;5084776;28;20383;-82
2021/04/15 09:48:33;;;;;;;5.10;1.80;;;10.20;86.30;;;;;;5083277;28;20047;-83
2021/04/15 09:51:19;;;;;;;6.40;1.95;;;10.10;71.90;;;;;;5070874;28;20116;-82
2021/04/15 09:54:09;;;;;;;3.20;1.85;;;10.20;79.20;;;;;;5056889;28;20037;-81
2021/04/15 09:56:40;;;;;;;3.13;1.90;;;10.30;76.10;;;;;;5083476;28;20094;-84
2021/04/15 09:59:30;;;;;;;4.22;2.25;;;10.30;73.20;;;;;;5093718;28;20040;-80
2021/04/15 10:02:21;;;;;;;3.30;1.60;;;10.20;76.70;;;;;;5074534;28;20106;-78
2021/04/15 10:04:52;;;;;;;4.53;1.85;;;10.30;77.70;;;;;;5089962;28;20036;-79
2021/04/15 10:07:30;;;;;;;3.63;1.80;;;10.30;79.40;;;;;;5098187;28;20350;-79
2021/04/15 10:10:20;;;;;;;4.93;1.85;;;10.40;79.00;;;;;;5085632;28;20117;-81
2021/04/15 10:13:06;;;;;;;3.63;1.80;;;10.70;78.70;;;;;;5081165;28;20040;-82
2021/04/15 10:15:40;;;;;;;2.50;1.70;;;11.00;78.70;;;;;;5082382;28;20103;-81
2021/04/15 10:18:29;;;;;;;4.53;1.95;;;11.20;76.70;;;;;;5073198;28;20039;-81
2021/04/15 10:21:07;;;;;;;3.13;1.80;;;11.40;70.00;;;;;;5090536;28;20040;-80
2021/04/15 10:23:59;;;;;;;4.05;2.00;;;10.90;65.70;;;;;;5091403;28;20080;-80
2021/04/15 10:26:41;;;;;;;2.67;1.63;;;11.20;70.60;;;;;;5081559;28;20040;-79
2021/04/15 10:29:43;;;;;;;3.85;1.95;;;11.20;70.80;;;;;;5096760;28;20040;-82
2021/04/15 10:32:26;;;;;;;3.47;1.80;;;11.30;62.40;;;;;;5090964;28;20139;-83
2021/04/15 10:35:21;;;;;;;3.55;2.50;;;11.20;64.30;;;;;;5074695;28;20044;-82
2021/04/15 10:38:09;;;;;;;3.35;2.03;;;11.30;68.80;;;;;;5075116;28;20040;-82
2021/04/15 10:41:05;;;;;;;3.58;1.80;;;11.60;69.00;;;;;;5093927;28;20515;-82
2021/04/15 10:43:58;;;;;;;3.33;1.60;;;11.80;65.10;;;;;;5093362;28;20036;-79
2021/04/15 10:46:24;;;;;;;3.25;1.60;;;12.00;65.80;;;;;;5108556;28;20036;-80
2021/04/15 10:49:09;;;;;;;5.57;1.73;;;11.90;64.30;;;;;;5078845;28;20040;-78
2021/04/15 10:52:15;;;;;;;3.25;2.08;;;11.80;62.80;;;;;;5093178;28;20469;-78
2021/04/15 10:54:43;;;;;;;3.55;1.90;;;11.80;60.80;;;;;;5093307;28;20036;-81
2021/04/15 10:57:29;;;;;;;4.63;2.00;;;11.70;61.90;;;;;;5059991;28;20036;-82
2021/04/15 10:59:55;;;;;;;4.88;2.08;;;11.70;61.60;;;;;;5074577;28;20036;-80
2021/04/15 11:02:20;;;;;;;4.07;2.00;;;11.80;63.10;;;;;;5059610;28;20093;-76
2021/04/15 11:04:47;;;;;;;4.63;2.00;;;11.90;62.50;;;;;;5092460;28;20153;-78
2021/04/15 11:07:18;;;;;;;5.00;1.80;;;12.20;65.10;;;;;;5099055;28;20036;-76
2021/04/15 11:09:51;;;;;;;3.22;1.50;;;12.50;65.40;;;;;;5067732;28;20048;-78
2021/04/15 11:12:25;;;;;;;4.82;1.90;;;12.80;64.40;;;;;;5078190;28;20048;-77
2021/04/15 11:14:57;;;;;;;3.42;1.60;;;13.10;63.10;;;;;;5092967;28;20095;-78
2021/04/15 11:17:29;;;;;;;4.55;1.85;;;13.40;62.40;;;;;;5077280;28;20055;-79
2021/04/15 11:20:23;;;;;;;3.08;1.90;;;13.40;61.60;;;;;;5079530;28;20048;-79
2021/04/15 11:22:57;;;;;;;3.33;2.42;;;13.50;58.50;;;;;;5084722;28;20155;-79
2021/04/15 11:25:39;;;;;;;4.15;2.38;;;13.30;55.20;;;;;;5073883;28;20101;-77
2021/04/15 11:28:22;;;;;;;3.10;1.90;;;12.90;56.80;;;;;;5092976;28;20612;-78
2021/04/15 11:30:53;;;;;;;4.15;2.88;;;12.70;56.60;;;;;;5085418;28;20164;-80
2021/04/15 11:33:44;;;;;;;5.50;2.70;;;12.40;58.00;;;;;;5073765;28;20114;-81
2021/04/15 11:36:15;;;;;;;4.32;2.97;;;11.90;57.00;;;;;;5071602;28;20040;-77
2021/04/15 11:38:47;;;;;;;4.85;2.50;;;11.40;60.00;;;;;;5091705;28;20036;-81
2021/04/15 11:41:20;;;;;;;4.28;3.10;;;11.00;60.70;;;;;;5092519;28;20038;-82
2021/04/15 11:43:48;;;;;;;4.30;2.78;;;10.80;62.10;;;;;;5093517;28;20111;-77
2021/04/15 11:46:32;;;;;;;5.45;3.13;;;10.60;62.80;;;;;;5075638;28;20035;-81
2021/04/15 11:49:29;;;;;;;5.35;2.53;;;10.50;61.80;;;;;;5104408;28;20095;-81
2021/04/15 11:52:20;;;;;;;6.60;2.33;;;10.50;61.20;;;;;;5061026;28;20501;-78
2021/04/15 11:54:48;;;;;;;4.57;2.30;;;10.40;61.10;;;;;;5092292;28;20047;-79
2021/04/15 11:57:20;;;;;;;6.15;2.65;;;10.50;63.60;;;;;;5113945;28;20085;-80
2021/04/15 12:00:04;;;;;;;3.75;2.30;;;10.60;64.50;;;;;;5095147;28;20031;-80
2021/04/15 12:02:50;;;;;;;4.80;2.90;;;10.60;67.20;;;;;;5097596;28;20064;-80
2021/04/15 12:05:32;;;;;;;5.85;2.70;;;10.20;68.70;;;;;;5086170;28;20040;-80
2021/04/15 12:08:07;;;;;;;5.93;2.75;;;10.00;71.30;;;;;;5069395;28;20069;-79
2021/04/15 12:10:37;;;;;;;5.07;2.90;;;10.00;72.40;;;;;;5113147;28;20093;-83
2021/04/15 12:13:07;;;;;;;5.32;3.00;;;10.20;73.70;;;;;;5071244;28;20040;-80
2021/04/15 12:15:44;;;;;;;5.07;2.90;;;10.30;73.10;;;;;;5095212;28;20473;-81
2021/04/15 12:18:27;;;;;;;;;;;10.30;72.40;;;;;;5097669;28;20044;-79
2021/04/15 12:21:03;;;;;;;4.22;2.58;;;10.40;71.90;;;;;;5072847;28;19920;-83
2021/04/15 12:24:12;;;;;;;5.72;2.80;;;10.50;70.90;;;;;;5082231;28;20104;-80
2021/04/15 12:26:51;;;;;;;4.78;2.60;;;10.50;70.40;;;;;;5055799;28;20511;-83
2021/04/15 12:29:26;;;;;;;6.78;2.97;;;10.40;70.10;;;;;;5067268;28;20131;-82
2021/04/15 12:32:06;;;;;;;5.50;3.05;;;10.60;69.90;;;;;;5074588;28;20032;-81
2021/04/15 12:34:38;;;;;;;5.78;3.15;;;10.70;68.10;;;;;;5086973;28;20055;-81
2021/04/15 12:37:08;;;;;;;4.57;2.83;;;10.80;68.20;;;;;;5074143;28;20047;-85
2021/04/15 12:39:49;;;;;;;5.20;3.00;;;11.00;67.60;;;;;;5074159;28;20028;-83
2021/04/15 12:42:21;;;;;;;6.97;3.35;;;11.10;67.30;;;;;;5082212;28;20193;-81
2021/04/15 12:44:49;;;;;;;5.57;3.25;;;11.00;64.30;;;;;;5074639;28;20052;-81
2021/04/15 12:47:16;;;;;;;5.65;2.83;;;10.80;65.10;;;;;;5067620;28;20184;-86
2021/04/15 12:49:42;;;;;;;4.88;2.78;;;11.00;65.20;;;;;;5072455;28;20059;-83
2021/04/15 12:52:12;;;;;;;5.65;3.25;;;11.30;65.50;;;;;;5071725;28;20032;-81
2021/04/15 12:54:41;;;;;;;5.15;3.00;;;11.50;63.10;;;;;;5094618;28;20032;-81
2021/04/15 12:57:12;;;;;;;3.97;2.88;;;11.40;62.60;;;;;;5076031;28;20048;-81
2021/04/15 12:59:49;;;;;;;4.25;2.65;;;11.30;63.40;;;;;;5072811;28;20097;-81
2021/04/15 13:02:27;;;;;;;3.70;2.40;;;11.30;61.50;;;;;;5068800;28;20067;-78
2021/04/15 13:04:57;;;;;;;4.47;2.55;;;11.30;62.80;;;;;;5075143;28;20028;-79
2021/04/15 13:07:32;;;;;;;4.28;2.35;;;11.30;62.00;;;;;;5078761;28;20028;-80
2021/04/15 13:10:19;;;;;;;4.32;2.40;;;11.30;61.10;;;;;;5086939;28;20151;-81
2021/04/15 13:12:46;;;;;;;4.05;2.40;;;11.30;59.20;;;;;;5075917;28;20211;-81
2021/04/15 13:15:23;;;;;;;6.32;2.40;;;11.10;59.30;;;;;;5090694;28;20441;-77
2021/04/15 13:17:50;;;;;;;8.68;2.58;;;11.10;60.00;;;;;;5073468;28;20039;-79
2021/04/15 13:20:21;;;;;;;4.43;2.60;;;11.40;60.20;;;;;;5108694;28;20090;-80
2021/04/15 13:22:56;;;;;;;4.25;2.60;;;11.60;60.00;;;;;;5083242;28;20036;-75
2021/04/15 13:25:26;;;;;;;5.35;2.50;;;12.20;60.50;;;;;;5105053;28;20340;-80
2021/04/15 13:28:04;;;;;;;4.60;2.80;;;12.50;59.30;;;;;;5083267;28;20048;-81
2021/04/15 13:30:42;;;;;;;5.07;2.50;;;12.30;58.30;;;;;;5111108;28;20416;-82
2021/04/15 13:33:17;;;;;;;4.30;2.78;;;12.50;57.30;;;;;;5076386;28;20036;-79
2021/04/15 13:35:50;;;;;;;4.05;2.70;;;12.60;59.20;;;;;;5096992;28;20455;-80
2021/04/15 13:38:32;;;;;;;3.88;2.75;;;12.90;59.20;;;;;;5074870;28;20032;-80
2021/04/15 13:41:05;;;;;;;4.63;2.30;;;13.40;57.80;;;;;;5079587;28;20060;-79
2021/04/15 13:43:47;;;;;;;5.03;2.42;;;13.60;57.80;;;;;;5059959;28;20089;-81
2021/04/15 13:46:22;;;;;;;4.53;2.47;;;13.80;51.10;;;;;;5078995;28;20130;-80
2021/04/15 13:48:59;;;;;;;4.57;2.45;;;14.10;53.10;;;;;;5105948;28;20031;-81
2021/04/15 13:51:53;;;;;;;4.72;2.53;;;14.30;54.00;;;;;;5105985;28;20059;-82
2021/04/15 13:54:23;;;;;;;3.58;2.50;;;14.40;52.80;;;;;;5075245;28;20035;-78